createdAt,value
2018-02-24T00:00:05.644Z,0
2018-02-24T00:01:15.763Z,0
2018-02-24T00:02:25.811Z,0
2018-02-24T00:03:35.600Z,0
2018-02-24T00:04:45.402Z,0
2018-02-24T00:05:55.459Z,0
2018-02-24T00:07:05.527Z,0
2018-02-24T00:08:16.980Z,0
2018-02-24T00:09:26.525Z,0
2018-02-24T00:10:36.307Z,0
2018-02-24T00:11:46.366Z,0
2018-02-24T00:12:56.415Z,0
2018-02-24T00:14:06.464Z,0
2018-02-24T00:15:16.250Z,0
2018-02-24T00:16:26.305Z,0
2018-02-24T00:17:36.363Z,0
2018-02-24T00:18:46.170Z,0
2018-02-24T00:19:55.703Z,0
2018-02-24T00:21:05.754Z,0
2018-02-24T00:22:15.544Z,0
2018-02-24T00:23:25.331Z,0
2018-02-24T00:24:35.126Z,0
2018-02-24T00:25:44.919Z,0
2018-02-24T00:26:54.972Z,0
2018-02-24T00:28:04.750Z,0
2018-02-24T00:29:14.264Z,0
2018-02-24T00:30:23.811Z,0
2018-02-24T00:31:33.597Z,0
2018-02-24T00:32:43.643Z,0
2018-02-24T00:33:53.702Z,0
2018-02-24T00:35:02.957Z,0
2018-02-24T00:36:12.752Z,0
2018-02-24T00:37:22.535Z,0
2018-02-24T00:38:32.066Z,0
2018-02-24T00:39:41.868Z,0
2018-02-24T00:40:51.943Z,0
2018-02-24T00:42:01.769Z,0
2018-02-24T00:43:11.553Z,0
2018-02-24T00:44:21.336Z,0
2018-02-24T00:45:31.144Z,0
2018-02-24T00:46:40.674Z,0
2018-02-24T00:47:50.463Z,0
2018-02-24T00:49:00.531Z,0
2018-02-24T00:50:10.352Z,0
2018-02-24T00:51:20.408Z,0
2018-02-24T00:52:30.451Z,0
2018-02-24T00:53:40.565Z,0
2018-02-24T00:54:50.363Z,0
2018-02-24T00:56:00.412Z,0
2018-02-24T00:57:09.949Z,0
2018-02-24T00:58:19.486Z,0
2018-02-24T00:59:29.526Z,0
2018-02-24T01:00:39.586Z,0
2018-02-24T01:01:49.634Z,0
2018-02-24T01:02:59.671Z,0
2018-02-24T01:04:09.728Z,0
2018-02-24T01:05:19.510Z,0
2018-02-24T01:06:29.306Z,0
2018-02-24T01:07:39.347Z,0
2018-02-24T01:08:49.391Z,0
2018-02-24T01:09:59.183Z,0
2018-02-24T01:11:09.274Z,0
2018-02-24T01:12:19.320Z,0
2018-02-24T01:13:29.417Z,0
2018-02-24T01:14:38.818Z,0
2018-02-24T01:15:48.952Z,0
2018-02-24T01:16:58.749Z,0
2018-02-24T01:18:08.286Z,0
2018-02-24T01:19:18.332Z,0
2018-02-24T01:20:28.418Z,0
2018-02-24T01:21:39.151Z,0
2018-02-24T01:22:48.938Z,0
2018-02-24T01:23:58.738Z,0
2018-02-24T01:25:08.524Z,0
2018-02-24T01:26:18.573Z,0
2018-02-24T01:27:28.609Z,0
2018-02-24T01:28:38.675Z,0
2018-02-24T01:29:48.199Z,0
2018-02-24T01:30:58.245Z,0
2018-02-24T01:32:08.285Z,0
2018-02-24T01:33:18.431Z,0
2018-02-24T01:34:28.471Z,0
2018-02-24T01:35:38.256Z,0
2018-02-24T01:36:48.053Z,0
2018-02-24T01:37:57.045Z,0
2018-02-24T01:39:06.573Z,0
2018-02-24T01:40:16.138Z,0
2018-02-24T01:41:25.920Z,0
2018-02-24T01:42:36.027Z,0
2018-02-24T01:43:45.820Z,0
2018-02-24T01:44:55.856Z,0
2018-02-24T01:46:05.641Z,0
2018-02-24T01:47:15.718Z,0
2018-02-24T01:48:25.510Z,0
2018-02-24T01:49:35.048Z,0
2018-02-24T01:50:45.643Z,0
2018-02-24T01:51:55.697Z,0
2018-02-24T01:53:05.493Z,0
2018-02-24T01:54:15.554Z,0
2018-02-24T01:55:25.597Z,0
2018-02-24T01:56:35.652Z,0
2018-02-24T01:57:45.450Z,0
2018-02-24T01:58:55.541Z,0
2018-02-24T02:00:05.058Z,0
2018-02-24T02:01:14.865Z,0
2018-02-24T02:02:24.911Z,0
2018-02-24T02:03:34.713Z,0
2018-02-24T02:04:44.778Z,0
2018-02-24T02:05:54.303Z,0
2018-02-24T02:07:04.100Z,0
2018-02-24T02:08:14.146Z,0
2018-02-24T02:09:24.010Z,0
2018-02-24T02:10:33.797Z,0
2018-02-24T02:11:43.609Z,0
2018-02-24T02:12:53.708Z,0
2018-02-24T02:14:03.740Z,0
2018-02-24T02:15:13.310Z,0
2018-02-24T02:16:23.087Z,0
2018-02-24T02:17:32.860Z,0
2018-02-24T02:18:42.645Z,0
2018-02-24T02:19:52.460Z,0
2018-02-24T02:21:02.543Z,0
2018-02-24T02:22:12.603Z,0
2018-02-24T02:23:22.388Z,0
2018-02-24T02:24:31.925Z,0
2018-02-24T02:25:41.987Z,0
2018-02-24T02:26:51.498Z,0
2018-02-24T02:28:01.038Z,0
2018-02-24T02:29:11.096Z,0
2018-02-24T02:30:21.146Z,0
2018-02-24T02:31:30.938Z,0
2018-02-24T02:32:41.051Z,0
2018-02-24T02:33:51.116Z,0
2018-02-24T02:35:01.174Z,0
2018-02-24T02:36:11.252Z,0
2018-02-24T02:37:20.800Z,0
2018-02-24T02:38:30.856Z,0
2018-02-24T02:39:40.922Z,0
2018-02-24T02:40:50.975Z,0
2018-02-24T02:42:01.047Z,0
2018-02-24T02:43:11.113Z,0
2018-02-24T02:44:20.902Z,0
2018-02-24T02:45:30.439Z,0
2018-02-24T02:46:40.248Z,0
2018-02-24T02:47:50.324Z,0
2018-02-24T02:49:00.383Z,0
2018-02-24T02:50:10.418Z,0
2018-02-24T02:51:19.961Z,0
2018-02-24T02:52:30.009Z,0
2018-02-24T02:53:40.076Z,0
2018-02-24T02:54:49.876Z,0
2018-02-24T02:55:59.673Z,0
2018-02-24T02:57:09.714Z,0
2018-02-24T02:58:19.513Z,0
2018-02-24T02:59:29.588Z,0
2018-02-24T03:00:39.120Z,0
2018-02-24T03:01:49.176Z,0
2018-02-24T03:02:58.714Z,0
2018-02-24T03:04:08.771Z,0
2018-02-24T03:05:18.839Z,0
2018-02-24T03:37:35.126Z,0
2018-02-24T03:38:44.642Z,0
2018-02-24T03:39:54.699Z,0
2018-02-24T03:41:04.740Z,0
2018-02-24T03:42:14.521Z,0
2018-02-24T03:43:24.303Z,0
2018-02-24T03:44:34.086Z,0
2018-02-24T03:45:44.108Z,0
2018-02-24T03:46:54.132Z,0
2018-02-24T03:48:03.923Z,0
2018-02-24T03:49:13.429Z,0
2018-02-24T03:50:23.219Z,0
2018-02-24T03:51:33.280Z,0
2018-02-24T03:52:43.308Z,0
2018-02-24T03:53:53.364Z,0
2018-02-24T03:55:02.933Z,0
2018-02-24T03:56:12.977Z,0
2018-02-24T03:57:22.759Z,0
2018-02-24T03:58:32.562Z,0
2018-02-24T03:59:42.352Z,0
2018-02-24T04:00:51.914Z,0
2018-02-24T04:02:01.964Z,0
2018-02-24T04:03:12.014Z,0
2018-02-24T04:04:22.117Z,0
2018-02-24T04:05:32.159Z,0
2018-02-24T04:06:42.039Z,0
2018-02-24T04:07:51.846Z,0
2018-02-24T04:09:01.899Z,0
2018-02-24T04:10:11.931Z,0
2018-02-24T04:11:21.728Z,0
2018-02-24T04:12:31.582Z,0
2018-02-24T04:13:41.616Z,0
2018-02-24T04:14:51.685Z,0
2018-02-24T04:16:01.478Z,0
2018-02-24T04:17:11.525Z,0
2018-02-24T04:18:21.073Z,0
2018-02-24T04:19:30.855Z,0
2018-02-24T04:20:40.640Z,0
2018-02-24T04:21:50.674Z,0
2018-02-24T04:23:00.459Z,0
2018-02-24T04:24:10.499Z,0
2018-02-24T04:25:20.547Z,0
2018-02-24T04:26:30.334Z,0
2018-02-24T04:27:39.850Z,0
2018-02-24T04:28:49.914Z,0
2018-02-24T04:29:59.761Z,0
2018-02-24T04:31:09.804Z,0
2018-02-24T04:32:19.849Z,0
2018-02-24T04:33:29.947Z,0
2018-02-24T04:34:39.730Z,0
2018-02-24T04:35:49.826Z,0
2018-02-24T04:36:59.874Z,0
2018-02-24T04:38:09.913Z,0
2018-02-24T04:39:19.977Z,0
2018-02-24T04:40:29.752Z,0
2018-02-24T04:41:39.538Z,0
2018-02-24T04:42:49.621Z,0
2018-02-24T04:43:59.400Z,0
2018-02-24T04:45:08.937Z,0
2018-02-24T04:46:18.989Z,0
2018-02-24T04:47:29.051Z,0
2018-02-24T04:48:39.105Z,0
2018-02-24T04:49:48.625Z,0
2018-02-24T04:50:58.671Z,0
2018-02-24T04:52:08.467Z,0
2018-02-24T04:53:18.513Z,0
2018-02-24T04:54:28.292Z,0
2018-02-24T04:55:37.818Z,0
2018-02-24T04:56:47.607Z,0
2018-02-24T04:57:57.649Z,0
2018-02-24T04:59:07.761Z,0
2018-02-24T05:00:17.550Z,0
2018-02-24T05:01:27.351Z,0
2018-02-24T05:02:37.140Z,0
2018-02-24T05:03:46.934Z,0
2018-02-24T05:04:56.975Z,0
2018-02-24T05:06:07.009Z,0
2018-02-24T05:07:17.063Z,0
2018-02-24T05:08:27.117Z,0
2018-02-24T05:09:37.165Z,0
2018-02-24T05:10:47.221Z,0
2018-02-24T05:11:57.290Z,4
2018-02-24T05:13:06.815Z,4
2018-02-24T05:14:16.596Z,4
2018-02-24T05:15:26.389Z,0
2018-02-24T05:16:36.416Z,0
2018-02-24T05:17:46.503Z,4
2018-02-24T05:18:56.023Z,0
2018-02-24T05:20:05.814Z,4
2018-02-24T05:21:15.356Z,4
2018-02-24T05:22:25.135Z,4
2018-02-24T05:23:34.935Z,4
2018-02-24T05:24:44.983Z,8
2018-02-24T05:25:54.513Z,4
2018-02-24T05:27:04.032Z,12
2018-02-24T05:28:13.549Z,12
2018-02-24T05:29:23.611Z,16
2018-02-24T05:30:33.386Z,16
2018-02-24T05:31:43.519Z,20
2018-02-24T05:32:52.981Z,24
2018-02-24T05:34:02.556Z,32
2018-02-24T05:35:12.611Z,36
2018-02-24T05:36:22.410Z,44
2018-02-24T05:37:32.456Z,48
2018-02-24T05:38:41.974Z,56
2018-02-24T05:39:51.800Z,68
2018-02-24T05:41:01.843Z,76
2018-02-24T05:42:11.638Z,88
2018-02-24T05:43:21.674Z,100
2018-02-24T05:44:31.463Z,112
2018-02-24T05:45:40.989Z,128
2018-02-24T05:46:50.764Z,144
2018-02-24T05:48:00.562Z,160
2018-02-24T05:49:10.619Z,176
2018-02-24T05:50:20.396Z,200
2018-02-24T05:51:30.176Z,220
2018-02-24T05:52:39.955Z,240
2018-02-24T05:53:49.812Z,260
2018-02-24T05:54:59.855Z,284
2018-02-24T05:56:09.660Z,308
2018-02-24T05:57:19.456Z,340
2018-02-24T05:58:29.508Z,368
2018-02-24T05:59:39.589Z,396
2018-02-24T06:00:49.100Z,424
2018-02-24T06:01:59.165Z,456
2018-02-24T06:03:09.209Z,484
2018-02-24T06:04:19.242Z,520
2018-02-24T06:05:29.020Z,552
2018-02-24T06:06:39.079Z,588
2018-02-24T06:07:49.118Z,620
2018-02-24T06:08:58.640Z,656
2018-02-24T06:10:08.178Z,692
2018-02-24T06:11:18.227Z,728
2018-02-24T06:12:28.283Z,764
2018-02-24T06:13:38.058Z,800
2018-02-24T06:14:48.108Z,840
2018-02-24T06:15:57.965Z,880
2018-02-24T06:17:08.009Z,920
2018-02-24T06:18:17.815Z,960
2018-02-24T06:19:27.859Z,1000
2018-02-24T06:20:37.944Z,1036
2018-02-24T06:21:47.743Z,1080
2018-02-24T06:22:57.540Z,1120
2018-02-24T06:24:07.326Z,1160
2018-02-24T06:25:16.603Z,1204
2018-02-24T06:26:26.158Z,1252
2018-02-24T06:27:37.127Z,1300
2018-02-24T06:28:47.194Z,1352
2018-02-24T06:29:56.446Z,1396
2018-02-24T06:31:06.237Z,1444
2018-02-24T06:32:16.034Z,1488
2018-02-24T06:33:26.103Z,1532
2018-02-24T06:34:36.147Z,1584
2018-02-24T06:35:45.932Z,1640
2018-02-24T06:36:55.992Z,1688
2018-02-24T06:38:06.043Z,1736
2018-02-24T06:39:15.303Z,1776
2018-02-24T06:40:24.578Z,1816
2018-02-24T06:41:34.637Z,1864
2018-02-24T06:42:44.456Z,1912
2018-02-24T06:43:53.718Z,1956
2018-02-24T06:45:03.780Z,1992
2018-02-24T06:46:13.291Z,2028
2018-02-24T06:47:23.082Z,2060
2018-02-24T06:48:33.125Z,2096
2018-02-24T06:49:42.657Z,2128
2018-02-24T06:50:52.437Z,2156
2018-02-24T06:52:02.246Z,2184
2018-02-24T06:53:12.060Z,2228
2018-02-24T06:54:21.591Z,2284
2018-02-24T06:55:31.393Z,2336
2018-02-24T06:56:40.912Z,2392
2018-02-24T06:57:50.966Z,2432
2018-02-24T06:59:00.755Z,2476
2018-02-24T07:00:10.817Z,2512
2018-02-24T07:01:20.611Z,2552
2018-02-24T07:02:30.149Z,2588
2018-02-24T07:03:39.682Z,2632
2018-02-24T07:04:49.494Z,2668
2018-02-24T07:05:59.550Z,2728
2018-02-24T07:07:09.607Z,2780
2018-02-24T07:08:19.665Z,2812
2018-02-24T07:09:29.460Z,2860
2018-02-24T07:10:38.992Z,2908
2018-02-24T07:11:48.785Z,2932
2018-02-24T07:12:58.375Z,2972
2018-02-24T07:14:08.453Z,3016
2018-02-24T07:15:18.254Z,3072
2018-02-24T07:16:28.311Z,3124
2018-02-24T07:17:37.851Z,3156
2018-02-24T07:18:47.914Z,3184
2018-02-24T07:19:57.458Z,3216
2018-02-24T07:21:07.258Z,3256
2018-02-24T07:22:17.049Z,3292
2018-02-24T07:23:27.117Z,3336
2018-02-24T07:24:36.905Z,3384
2018-02-24T07:25:46.962Z,3408
2018-02-24T07:26:56.762Z,3424
2018-02-24T07:28:06.575Z,3468
2018-02-24T07:29:16.643Z,3524
2018-02-24T07:30:26.439Z,3572
2018-02-24T07:31:36.518Z,3608
2018-02-24T07:32:46.318Z,3660
2018-02-24T07:33:56.090Z,3716
2018-02-24T07:35:05.905Z,3732
2018-02-24T07:36:15.753Z,3772
2018-02-24T07:37:25.797Z,3856
2018-02-24T07:38:35.875Z,3888
2018-02-24T07:39:45.668Z,3932
2018-02-24T07:40:55.467Z,3948
2018-02-24T07:42:05.262Z,3984
2018-02-24T07:43:14.800Z,3996
2018-02-24T07:44:24.861Z,4012
2018-02-24T07:45:35.019Z,4040
2018-02-24T07:46:45.072Z,4140
2018-02-24T07:47:54.870Z,4156
2018-02-24T07:49:04.931Z,4164
2018-02-24T07:50:14.698Z,4212
2018-02-24T07:51:24.534Z,4272
2018-02-24T07:52:34.573Z,4316
2018-02-24T07:53:44.638Z,4352
2018-02-24T07:54:55.848Z,4384
2018-02-24T07:56:05.669Z,4436
2018-02-24T07:57:15.473Z,4508
2018-02-24T07:58:25.264Z,4524
2018-02-24T07:59:35.422Z,4540
2018-02-24T08:00:45.217Z,4540
2018-02-24T08:01:55.281Z,4620
2018-02-24T08:03:04.826Z,4644
2018-02-24T08:04:14.358Z,4656
2018-02-24T08:05:25.964Z,4692
2018-02-24T08:06:35.487Z,4720
2018-02-24T08:07:45.534Z,4748
2018-02-24T08:08:55.620Z,4752
2018-02-24T08:10:05.432Z,4784
2018-02-24T08:11:15.488Z,4812
2018-02-24T08:12:25.542Z,4876
2018-02-24T08:13:35.327Z,4924
2018-02-24T08:14:44.647Z,4952
2018-02-24T08:15:54.252Z,4972
2018-02-24T08:17:05.290Z,4980
2018-02-24T08:18:15.095Z,5060
2018-02-24T08:19:25.191Z,5092
2018-02-24T08:20:35.306Z,5148
2018-02-24T08:21:45.505Z,5188
2018-02-24T08:22:55.046Z,5236
2018-02-24T08:24:04.830Z,5224
2018-02-24T08:25:14.616Z,5276
2018-02-24T08:26:24.137Z,5280
2018-02-24T08:27:34.210Z,5296
2018-02-24T08:28:44.009Z,5340
2018-02-24T08:29:54.049Z,5360
2018-02-24T08:31:03.571Z,5396
2018-02-24T08:32:13.106Z,5440
2018-02-24T08:33:22.630Z,5448
2018-02-24T08:34:32.699Z,5492
2018-02-24T08:35:42.214Z,5504
2018-02-24T08:36:52.282Z,5544
2018-02-24T08:38:01.809Z,5568
2018-02-24T08:39:11.628Z,5564
2018-02-24T08:40:21.676Z,5624
2018-02-24T08:41:31.543Z,5660
2018-02-24T08:42:41.357Z,5708
2018-02-24T08:43:51.179Z,5788
2018-02-24T08:45:00.992Z,5780
2018-02-24T08:46:10.797Z,5856
2018-02-24T08:47:20.366Z,5800
2018-02-24T08:48:30.423Z,5868
2018-02-24T08:49:40.360Z,5940
2018-02-24T08:50:50.206Z,5928
2018-02-24T08:52:00.286Z,5964
2018-02-24T08:53:10.087Z,5960
2018-02-24T08:54:20.171Z,6016
2018-02-24T08:55:30.043Z,6012
2018-02-24T08:56:39.858Z,6040
2018-02-24T08:57:49.967Z,6080
2018-02-24T08:59:00.040Z,6116
2018-02-24T09:00:09.861Z,6132
2018-02-24T09:01:20.047Z,6164
2018-02-24T09:02:29.978Z,6180
2018-02-24T09:03:40.063Z,6180
2018-02-24T09:04:50.153Z,6184
2018-02-24T09:05:59.797Z,6276
2018-02-24T09:07:09.952Z,6280
2018-02-24T09:08:19.806Z,6292
2018-02-24T09:09:29.625Z,6424
2018-02-24T09:10:39.722Z,6440
2018-02-24T09:11:49.786Z,6376
2018-02-24T09:12:59.641Z,6508
2018-02-24T09:14:10.665Z,6520
2018-02-24T09:15:20.722Z,6504
2018-02-24T09:16:30.527Z,6596
2018-02-24T09:17:40.338Z,6564
2018-02-24T09:18:50.404Z,6648
2018-02-24T09:20:00.199Z,6620
2018-02-24T09:21:10.263Z,6736
2018-02-24T09:22:20.079Z,6676
2018-02-24T09:23:29.622Z,6676
2018-02-24T09:24:39.712Z,6724
2018-02-24T09:25:49.246Z,6764
2018-02-24T09:26:59.318Z,6836
2018-02-24T09:28:09.397Z,6828
2018-02-24T09:29:19.461Z,6796
2018-02-24T09:30:29.267Z,6844
2018-02-24T09:31:39.322Z,6880
2018-02-24T09:32:48.869Z,6928
2018-02-24T09:33:58.685Z,6900
2018-02-24T09:35:08.746Z,6888
2018-02-24T09:36:18.281Z,6948
2018-02-24T09:37:28.354Z,6984
2018-02-24T09:38:37.893Z,6996
2018-02-24T09:39:47.517Z,7004
2018-02-24T09:40:57.349Z,7012
2018-02-24T09:42:06.354Z,7060
2018-02-24T09:43:16.447Z,7088
2018-02-24T09:44:26.265Z,7080
2018-02-24T09:45:36.116Z,7088
2018-02-24T09:46:45.938Z,7084
2018-02-24T09:47:55.725Z,7164
2018-02-24T09:49:05.532Z,7156
2018-02-24T09:50:15.609Z,7208
2018-02-24T09:51:25.689Z,7188
2018-02-24T09:52:37.210Z,7260
2018-02-24T09:53:47.282Z,7224
2018-02-24T09:54:57.360Z,7300
2018-02-24T09:56:07.441Z,7296
2018-02-24T09:57:17.247Z,7256
2018-02-24T09:58:27.335Z,7384
2018-02-24T09:59:37.419Z,7416
2018-02-24T10:00:47.508Z,7376
2018-02-24T10:01:57.613Z,7404
2018-02-24T10:03:07.716Z,7284
2018-02-24T10:04:17.796Z,7484
2018-02-24T10:05:27.887Z,7444
2018-02-24T10:06:37.993Z,7500
2018-02-24T10:07:47.851Z,7512
2018-02-24T10:08:57.989Z,7520
2018-02-24T10:10:07.539Z,7600
2018-02-24T10:11:17.180Z,7560
2018-02-24T10:12:27.354Z,7596
2018-02-24T10:13:37.452Z,7620
2018-02-24T10:14:47.614Z,7644
2018-02-24T10:15:57.445Z,7644
2018-02-24T10:17:07.557Z,7624
2018-02-24T10:18:17.633Z,7584
2018-02-24T10:19:26.940Z,7632
2018-02-24T10:20:36.781Z,7592
2018-02-24T10:21:47.401Z,7736
2018-02-24T10:22:56.733Z,7616
2018-02-24T10:24:06.620Z,7668
2018-02-24T10:25:16.422Z,7776
2018-02-24T10:26:26.537Z,7752
2018-02-24T10:27:36.613Z,7668
2018-02-24T10:28:46.755Z,7656
2018-02-24T10:29:56.809Z,7684
2018-02-24T10:31:06.120Z,7700
2018-02-24T10:32:16.208Z,7804
2018-02-24T10:33:26.293Z,7780
2018-02-24T10:34:36.384Z,7768
2018-02-24T10:35:45.956Z,7876
2018-02-24T10:36:55.793Z,7888
2018-02-24T10:38:05.628Z,7948
2018-02-24T10:39:15.445Z,7824
2018-02-24T10:40:25.280Z,7892
2018-02-24T10:41:35.350Z,7936
2018-02-24T10:42:45.413Z,7876
2018-02-24T10:43:54.726Z,7812
2018-02-24T10:45:03.982Z,7912
2018-02-24T10:46:13.548Z,7824
2018-02-24T10:47:23.342Z,7840
2018-02-24T10:48:33.518Z,7776
2018-02-24T10:49:43.391Z,7912
2018-02-24T10:50:53.217Z,7836
2018-02-24T10:52:02.748Z,7908
2018-02-24T10:53:12.569Z,7932
2018-02-24T10:54:22.641Z,7884
2018-02-24T10:55:32.439Z,7964
2018-02-24T10:56:42.555Z,7896
2018-02-24T10:57:52.128Z,7900
2018-02-24T10:59:02.219Z,7780
2018-02-24T11:00:12.564Z,8032
2018-02-24T11:01:22.699Z,8064
2018-02-24T11:02:32.789Z,8100
2018-02-24T11:03:42.871Z,8024
2018-02-24T11:04:52.947Z,8092
2018-02-24T11:06:04.678Z,8108
2018-02-24T11:07:14.558Z,8064
2018-02-24T11:08:24.382Z,8172
2018-02-24T11:09:34.435Z,8120
2018-02-24T11:10:43.987Z,8088
2018-02-24T11:11:53.801Z,8080
2018-02-24T11:13:03.870Z,8052
2018-02-24T11:14:13.962Z,8020
2018-02-24T11:15:24.999Z,8180
2018-02-24T11:16:34.808Z,8168
2018-02-24T11:17:44.647Z,8104
2018-02-24T11:18:54.488Z,8040
2018-02-24T11:20:04.303Z,7912
2018-02-24T11:21:13.835Z,8004
2018-02-24T11:22:23.657Z,8060
2018-02-24T11:23:32.768Z,8068
2018-02-24T11:24:42.861Z,8004
2018-02-24T11:25:52.694Z,8124
2018-02-24T11:27:01.962Z,7968
2018-02-24T11:28:11.763Z,8056
2018-02-24T11:29:21.549Z,8064
2018-02-24T11:30:31.350Z,8012
2018-02-24T11:31:41.147Z,8044
2018-02-24T11:32:50.416Z,8048
2018-02-24T11:34:00.482Z,8024
2018-02-24T11:35:10.614Z,8032
2018-02-24T11:36:20.168Z,7940
2018-02-24T11:37:30.232Z,8208
2018-02-24T11:38:40.072Z,8108
2018-02-24T11:39:49.883Z,8096
2018-02-24T11:40:59.946Z,8376
2018-02-24T11:42:09.748Z,8228
2018-02-24T11:43:19.809Z,8188
2018-02-24T11:44:29.338Z,8280
2018-02-24T11:45:39.137Z,8244
2018-02-24T11:46:49.272Z,7908
2018-02-24T11:47:59.068Z,8088
2018-02-24T11:49:09.138Z,7764
2018-02-24T11:50:19.224Z,8120
2018-02-24T11:51:28.807Z,8124
2018-02-24T11:52:38.613Z,8040
2018-02-24T11:53:48.970Z,8208
2018-02-24T11:54:59.046Z,8208
2018-02-24T11:56:08.579Z,8340
2018-02-24T11:57:18.121Z,8208
2018-02-24T11:58:27.656Z,8196
2018-02-24T11:59:37.479Z,8244
2018-02-24T12:00:47.010Z,8220
2018-02-24T12:01:56.789Z,8100
2018-02-24T12:03:06.601Z,8068
2018-02-24T12:04:16.633Z,8216
2018-02-24T12:05:26.165Z,8200
2018-02-24T12:06:35.972Z,8084
2018-02-24T12:07:45.563Z,8252
2018-02-24T12:08:55.632Z,8200
2018-02-24T12:10:05.692Z,8248
2018-02-24T12:11:15.494Z,8240
2018-02-24T12:12:25.299Z,8228
2018-02-24T12:13:34.830Z,8264
2018-02-24T12:14:45.768Z,8360
2018-02-24T12:15:55.873Z,8280
2018-02-24T12:17:05.677Z,8248
2018-02-24T12:18:15.198Z,8552
2018-02-24T12:19:25.083Z,8700
2018-02-24T12:20:35.145Z,8724
2018-02-24T12:21:44.944Z,8888
2018-02-24T12:22:54.999Z,9200
2018-02-24T12:24:04.552Z,9348
2018-02-24T12:25:14.605Z,9448
2018-02-24T12:26:24.722Z,9416
2018-02-24T12:27:34.851Z,8720
2018-02-24T12:28:44.675Z,7864
2018-02-24T12:29:54.473Z,9964
2018-02-24T12:31:03.742Z,10668
2018-02-24T12:32:13.817Z,10624
2018-02-24T12:33:23.148Z,7176
2018-02-24T12:34:32.433Z,11212
2018-02-24T12:35:42.499Z,6824
2018-02-24T12:36:52.556Z,7356
2018-02-24T12:38:02.103Z,6608
2018-02-24T12:39:11.910Z,6956
2018-02-24T12:40:21.977Z,6492
2018-02-24T12:41:31.775Z,9188
2018-02-24T12:42:41.826Z,5176
2018-02-24T12:43:51.881Z,5048
2018-02-24T12:45:01.407Z,4992
2018-02-24T12:46:11.460Z,4948
2018-02-24T12:47:21.541Z,4924
2018-02-24T12:48:31.620Z,4920
2018-02-24T12:49:41.901Z,4928
2018-02-24T12:50:51.783Z,4912
2018-02-24T12:52:01.863Z,4920
2018-02-24T12:53:11.919Z,4988
2018-02-24T12:54:21.713Z,4984
2018-02-24T12:55:31.515Z,5180
2018-02-24T12:56:41.636Z,5092
2018-02-24T12:57:51.161Z,4808
2018-02-24T12:59:01.006Z,4608
2018-02-24T13:00:11.100Z,4392
2018-02-24T13:01:20.923Z,4244
2018-02-24T13:02:31.069Z,4224
2018-02-24T13:03:40.906Z,5336
2018-02-24T13:04:50.459Z,4496
2018-02-24T13:06:00.027Z,4772
2018-02-24T13:07:09.840Z,5092
2018-02-24T13:08:19.901Z,7608
2018-02-24T13:09:29.988Z,5256
2018-02-24T13:10:39.588Z,5304
2018-02-24T13:11:49.679Z,5276
2018-02-24T13:12:59.766Z,5244
2018-02-24T13:14:09.927Z,5156
2018-02-24T13:15:19.737Z,4996
2018-02-24T13:16:29.816Z,4812
2018-02-24T13:17:39.919Z,4656
2018-02-24T13:18:49.981Z,4380
2018-02-24T13:20:00.130Z,4352
2018-02-24T13:21:09.713Z,7400
2018-02-24T13:22:19.556Z,4572
2018-02-24T13:24:56.813Z,4972
2018-02-24T13:26:06.628Z,4784
2018-02-24T13:27:16.181Z,4700
2018-02-24T13:28:25.998Z,5260
2018-02-24T13:29:36.116Z,4632
2018-02-24T13:30:45.948Z,4556
2018-02-24T13:31:56.032Z,4388
2018-02-24T13:33:06.118Z,4136
2018-02-24T13:34:15.930Z,3904
2018-02-24T13:35:25.757Z,3816
2018-02-24T13:36:35.346Z,5132
2018-02-24T13:37:58.957Z,3736
2018-02-24T13:39:09.060Z,3808
2018-02-24T13:40:19.163Z,3740
2018-02-24T13:41:29.393Z,6308
2018-02-24T13:42:39.476Z,3312
